Time;durP1;ratioP1;P1;durP2;ratioP2;P2;SDS_P1;SDS_P2;PMS_P1;PMS_P2;Temp;Humidity;BMP_temperature;BMP_pressure;BME280_temperature;BME280_humidity;BME280_pressure;Samples;Min_cycle;Max_cycle;Signal;HPM_P1;HPM_P2
2021/12/04 00:00:40;;;;;;;5.50;3.03;;;;;;;;;;5027637;28;20037;-72
2021/12/04 00:03:06;;;;;;;4.22;3.03;;;;;;;;;;5026637;28;20075;-71
2021/12/04 00:05:31;;;;;;;4.18;2.63;;;;;;;;;;5027743;28;20057;-71
2021/12/04 00:07:57;;;;;;;4.35;3.25;;;;;;;;;;5027454;28;20094;-71
2021/12/04 00:10:27;;;;;;;4.25;2.80;;;;;;;;;;5027323;28;20127;-71
2021/12/04 00:12:53;;;;;;;2.97;2.47;;;;;;;;;;5027659;28;20092;-71
2021/12/04 00:15:19;;;;;;;7.50;2.05;;;;;;;;;;5026268;28;20065;-69
2021/12/04 00:17:44;;;;;;;6.07;3.08;;;;;;;;;;5025704;28;20048;-71
2021/12/04 00:20:11;;;;;;;5.97;2.70;;;;;;;;;;5027099;28;20110;-70
2021/12/04 00:22:37;;;;;;;2.47;1.98;;;;;;;;;;5026904;28;20131;-71
2021/12/04 00:25:07;;;;;;;3.35;2.42;;;;;;;;;;5026331;28;20040;-72
2021/12/04 00:27:33;;;;;;;1.63;1.52;;;;;;;;;;5058301;28;20714;-71
2021/12/04 00:29:58;;;;;;;4.38;1.45;;;;;;;;;;5027644;28;20832;-72
2021/12/04 00:32:34;;;;;;;4.20;2.70;;;;;;;;;;5027335;28;20439;-72
2021/12/04 00:35:34;;;;;;;3.40;2.58;;;;;;;;;;5027658;28;20045;-71
2021/12/04 00:43:21;;;;;;;6.13;2.90;;;;;;;;;;5026467;28;20088;-71
2021/12/04 00:51:16;;;;;;;3.53;2.70;;;;;;;;;;5027561;28;20117;-70
2021/12/04 00:53:42;;;;;;;3.65;2.67;;;;;;;;;;5027162;28;20037;-71
2021/12/04 00:56:08;;;;;;;2.53;2.00;;;;;;;;;;5026755;28;20043;-71
2021/12/04 00:58:33;;;;;;;2.20;2.00;;;;;;;;;;5026843;28;20095;-70
2021/12/04 01:00:59;;;;;;;3.65;2.35;;;;;;;;;;5028090;28;20108;-71
2021/12/04 01:03:25;;;;;;;2.60;2.03;;;;;;;;;;5026953;28;20036;-70
2021/12/04 01:05:51;;;;;;;2.00;1.83;;;;;;;;;;5025292;28;21089;-70
2021/12/04 01:08:17;;;;;;;5.57;2.50;;;;;;;;;;5025920;28;20542;-71
2021/12/04 01:10:42;;;;;;;2.17;1.98;;;;;;;;;;5025990;28;20025;-71
2021/12/04 01:13:11;;;;;;;3.70;2.58;;;;;;;;;;5025702;28;20060;-71
2021/12/04 01:15:42;;;;;;;3.00;2.60;;;;;;;;;;5024575;28;20144;-70
2021/12/04 01:18:09;;;;;;;4.05;2.50;;;;;;;;;;5024549;28;20048;-71
2021/12/04 01:20:35;;;;;;;2.80;2.08;;;;;;;;;;5024408;28;20068;-70
2021/12/04 01:23:01;;;;;;;2.95;2.03;;;;;;;;;;5026359;28;20065;-72
2021/12/04 01:25:27;;;;;;;4.57;1.90;;;;;;;;;;5026355;28;20074;-72
2021/12/04 01:27:52;;;;;;;3.10;2.25;;;;;;;;;;5026181;28;20053;-71
2021/12/04 01:30:18;;;;;;;3.85;2.10;;;;;;;;;;5026721;28;20065;-71
2021/12/04 01:32:43;;;;;;;3.17;2.00;;;;;;;;;;5024285;28;20037;-71
2021/12/04 01:35:09;;;;;;;2.15;1.95;;;;;;;;;;5024860;28;20087;-70
2021/12/04 01:37:34;;;;;;;1.50;1.40;;;;;;;;;;5025309;28;20156;-71
2021/12/04 01:40:00;;;;;;;2.15;1.83;;;;;;;;;;5025791;28;20041;-70
2021/12/04 01:42:26;;;;;;;3.25;2.25;;;;;;;;;;5026205;28;20061;-72
2021/12/04 01:44:51;;;;;;;3.20;2.20;;;;;;;;;;5025478;28;20037;-72
2021/12/04 01:47:20;;;;;;;3.08;2.30;;;;;;;;;;5029283;28;20033;-71
2021/12/04 01:49:51;;;;;;;3.75;2.55;;;;;;;;;;5044572;28;20033;-71
2021/12/04 01:52:19;;;;;;;2.88;2.28;;;;;;;;;;5030190;28;20037;-71
2021/12/04 01:54:46;;;;;;;4.18;2.20;;;;;;;;;;5029008;28;20073;-70
2021/12/04 01:57:15;;;;;;;3.33;1.67;;;;;;;;;;5029565;28;20025;-70
2021/12/04 01:59:42;;;;;;;3.08;2.10;;;;;;;;;;5030955;28;20493;-70
2021/12/04 02:02:08;;;;;;;3.55;2.63;;;;;;;;;;5056507;28;20039;-71
2021/12/04 02:04:33;;;;;;;2.58;1.90;;;;;;;;;;5028252;28;20041;-69
2021/12/04 02:07:03;;;;;;;8.93;2.47;;;;;;;;;;5029679;28;20465;-72
2021/12/04 02:09:29;;;;;;;2.80;2.40;;;;;;;;;;5030084;28;20057;-72
2021/12/04 02:11:55;;;;;;;3.85;2.65;;;;;;;;;;5029363;28;20045;-72
2021/12/04 02:14:20;;;;;;;3.40;2.80;;;;;;;;;;5029214;28;20087;-70
2021/12/04 02:16:45;;;;;;;3.00;2.70;;;;;;;;;;5027220;28;20041;-71
2021/12/04 02:19:13;;;;;;;3.17;2.72;;;;;;;;;;5028202;28;20480;-71
2021/12/04 02:21:39;;;;;;;2.83;2.50;;;;;;;;;;5028740;28;20123;-70
2021/12/04 02:24:05;;;;;;;5.57;3.05;;;;;;;;;;5027945;28;20041;-72
2021/12/04 02:26:32;;;;;;;3.20;2.88;;;;;;;;;;5027557;28;20037;-72
2021/12/04 02:28:57;;;;;;;3.40;2.58;;;;;;;;;;5028500;28;20503;-72
2021/12/04 02:31:24;;;;;;;5.95;2.90;;;;;;;;;;5028266;28;20037;-70
2021/12/04 02:33:49;;;;;;;3.85;2.97;;;;;;;;;;5027461;28;20148;-71
2021/12/04 02:36:15;;;;;;;6.15;3.05;;;;;;;;;;5028220;28;20038;-70
2021/12/04 02:38:40;;;;;;;3.25;2.90;;;;;;;;;;5028248;28;20037;-70
2021/12/04 02:41:08;;;;;;;5.15;3.00;;;;;;;;;;5029056;28;20042;-69
2021/12/04 02:43:34;;;;;;;5.97;2.90;;;;;;;;;;5029091;28;20116;-70
2021/12/04 02:46:00;;;;;;;4.53;3.13;;;;;;;;;;5027995;28;20049;-70
2021/12/04 02:48:26;;;;;;;6.47;3.25;;;;;;;;;;5024486;28;20111;-70
2021/12/04 02:50:52;;;;;;;4.53;3.03;;;;;;;;;;5024774;28;20029;-70
2021/12/04 02:53:17;;;;;;;5.40;2.80;;;;;;;;;;5025174;28;20060;-70
2021/12/04 02:55:43;;;;;;;3.95;2.50;;;;;;;;;;5025778;28;20045;-70
2021/12/04 02:58:09;;;;;;;5.32;2.55;;;;;;;;;;5025540;28;20554;-70
2021/12/04 03:00:47;;;;;;;2.40;2.20;;;;;;;;;;5024230;28;20041;-70
2021/12/04 03:03:13;;;;;;;3.42;2.90;;;;;;;;;;5025956;28;20486;-70
2021/12/04 03:05:38;;;;;;;4.45;2.08;;;;;;;;;;5025773;28;20080;-71
2021/12/04 03:08:06;;;;;;;2.58;2.35;;;;;;;;;;5025679;28;20033;-70
2021/12/04 03:10:32;;;;;;;2.47;2.28;;;;;;;;;;5024272;28;20041;-70
2021/12/04 03:12:57;;;;;;;2.50;2.15;;;;;;;;;;5025202;28;20043;-70
2021/12/04 03:15:23;;;;;;;2.63;2.20;;;;;;;;;;5024537;28;20049;-71
2021/12/04 03:17:50;;;;;;;3.67;2.35;;;;;;;;;;5025800;28;20049;-71
2021/12/04 03:20:16;;;;;;;2.85;2.10;;;;;;;;;;5025613;28;20041;-71
2021/12/04 03:22:44;;;;;;;5.75;2.67;;;;;;;;;;5025065;28;20036;-71
2021/12/04 03:25:10;;;;;;;3.40;2.10;;;;;;;;;;5026001;28;20076;-69
2021/12/04 03:27:37;;;;;;;2.70;2.47;;;;;;;;;;5026708;28;20037;-70
2021/12/04 03:30:14;;;;;;;2.50;2.25;;;;;;;;;;5027762;28;20029;-69
2021/12/04 03:40:56;;;;;;;3.60;2.60;;;;;;;;;;5025431;28;20067;-70
2021/12/04 03:43:22;;;;;;;3.08;2.10;;;;;;;;;;5024679;28;20279;-71
2021/12/04 03:45:53;;;;;;;4.35;2.50;;;;;;;;;;5024579;28;20706;-70
2021/12/04 03:48:50;;;;;;;4.25;2.70;;;;;;;;;;5024659;28;20480;-70
2021/12/04 03:51:14;;;;;;;3.63;2.60;;;;;;;;;;5024746;28;20041;-70
2021/12/04 03:53:39;;;;;;;4.28;3.10;;;;;;;;;;5025260;28;20041;-70
2021/12/04 03:56:05;;;;;;;2.72;2.53;;;;;;;;;;5025037;28;20100;-70
2021/12/04 03:58:31;;;;;;;3.55;2.55;;;;;;;;;;5025873;28;20512;-71
2021/12/04 04:00:57;;;;;;;2.22;2.03;;;;;;;;;;5026051;28;20045;-69
2021/12/04 04:03:25;;;;;;;6.82;2.92;;;;;;;;;;5023906;28;20036;-71
2021/12/04 04:05:50;;;;;;;4.28;2.60;;;;;;;;;;5025308;28;20033;-70
2021/12/04 04:08:16;;;;;;;4.25;2.65;;;;;;;;;;5026388;28;20090;-70
2021/12/04 04:10:43;;;;;;;7.78;2.83;;;;;;;;;;5058450;28;20111;-70
2021/12/04 04:13:11;;;;;;;4.30;2.63;;;;;;;;;;5026273;28;20112;-71
2021/12/04 04:15:37;;;;;;;3.15;2.53;;;;;;;;;;5026355;28;20171;-70
2021/12/04 04:18:04;;;;;;;3.95;2.22;;;;;;;;;;5026337;28;20120;-70
2021/12/04 04:20:30;;;;;;;5.13;2.33;;;;;;;;;;5027150;28;20179;-70
2021/12/04 04:22:55;;;;;;;2.75;2.00;;;;;;;;;;5026900;28;20125;-69
2021/12/04 04:25:21;;;;;;;2.95;2.30;;;;;;;;;;5027081;28;20061;-71
2021/12/04 04:27:46;;;;;;;3.42;2.40;;;;;;;;;;5025665;28;20115;-70
2021/12/04 04:30:14;;;;;;;2.63;2.25;;;;;;;;;;5024507;28;20483;-70
2021/12/04 04:32:41;;;;;;;3.97;2.00;;;;;;;;;;5024020;28;20098;-69
2021/12/04 04:35:11;;;;;;;4.15;2.25;;;;;;;;;;5022902;28;20090;-71
2021/12/04 04:37:55;;;;;;;2.55;2.03;;;;;;;;;;5023162;28;20385;-70
2021/12/04 05:15:16;;;;;;;4.40;3.03;;;;;;;;;;5022867;28;20045;-71
2021/12/04 05:17:55;;;;;;;3.10;2.80;;;;;;;;;;5024659;28;20848;-70
2021/12/04 05:20:25;;;;;;;7.03;3.03;;;;;;;;;;5027672;28;20055;-69
2021/12/04 05:22:51;;;;;;;7.38;3.20;;;;;;;;;;5029952;28;20048;-69
2021/12/04 05:25:16;;;;;;;3.08;2.45;;;;;;;;;;5031022;28;20033;-70
2021/12/04 05:27:42;;;;;;;2.17;1.98;;;;;;;;;;5031010;28;20033;-69
2021/12/04 05:30:08;;;;;;;3.08;2.28;;;;;;;;;;5030628;28;20649;-69
2021/12/04 05:32:33;;;;;;;2.47;2.28;;;;;;;;;;5030727;28;20128;-69
2021/12/04 05:34:59;;;;;;;3.25;2.22;;;;;;;;;;5029788;28;20508;-70
2021/12/04 05:37:24;;;;;;;1.75;1.65;;;;;;;;;;5029911;28;20041;-70
2021/12/04 05:39:50;;;;;;;2.63;1.73;;;;;;;;;;5028950;28;20041;-69
2021/12/04 05:42:15;;;;;;;2.95;2.38;;;;;;;;;;5027206;28;20057;-70
2021/12/04 05:44:42;;;;;;;4.40;2.20;;;;;;;;;;5026552;28;20052;-70
2021/12/04 05:47:19;;;;;;;2.63;2.08;;;;;;;;;;5026757;28;20043;-71
2021/12/04 05:52:22;;;;;;;3.65;1.52;;;;;;;;;;5025629;28;20034;-71
2021/12/04 05:57:22;;;;;;;3.88;2.85;;;;;;;;;;5025493;28;20033;-71
2021/12/04 05:59:48;;;;;;;2.60;2.33;;;;;;;;;;5057454;28;20049;-71
2021/12/04 06:02:15;;;;;;;2.03;1.83;;;;;;;;;;5026028;28;20033;-71
2021/12/04 06:04:41;;;;;;;4.13;2.20;;;;;;;;;;5027543;28;20392;-71
2021/12/04 06:07:06;;;;;;;2.72;2.03;;;;;;;;;;5026955;28;20044;-69
2021/12/04 06:09:32;;;;;;;2.15;1.48;;;;;;;;;;5028650;28;20037;-69
2021/12/04 06:12:04;;;;;;;1.83;1.73;;;;;;;;;;5028215;28;20042;-68
2021/12/04 06:14:31;;;;;;;2.53;2.20;;;;;;;;;;5027904;28;20037;-71
2021/12/04 06:16:56;;;;;;;2.50;1.88;;;;;;;;;;5026516;28;20029;-70
2021/12/04 06:22:37;;;;;;;1.58;1.48;;;;;;;;;;5027136;28;20087;-68
2021/12/04 06:24:54;;;;;;;2.17;1.98;;;;;;;;;;5029227;28;20580;-70
2021/12/04 06:27:19;;;;;;;4.60;1.60;;;;;;;;;;5029959;28;20037;-70
2021/12/04 06:29:45;;;;;;;2.85;1.88;;;;;;;;;;5028801;28;20040;-71
2021/12/04 06:32:10;;;;;;;1.80;1.60;;;;;;;;;;5029918;28;20084;-70
2021/12/04 06:34:36;;;;;;;3.20;1.65;;;;;;;;;;5030782;28;20038;-69
2021/12/04 06:37:01;;;;;;;1.77;1.48;;;;;;;;;;5029675;28;20049;-70
2021/12/04 06:39:27;;;;;;;3.55;1.70;;;;;;;;;;5029295;28;20048;-70
2021/12/04 06:41:52;;;;;;;1.20;1.10;;;;;;;;;;5030853;28;20061;-72
2021/12/04 06:44:18;;;;;;;3.30;1.95;;;;;;;;;;5030531;28;20041;-68
2021/12/04 06:46:43;;;;;;;1.80;1.38;;;;;;;;;;5029240;28;20033;-68
2021/12/04 06:49:15;;;;;;;5.13;1.30;;;;;;;;;;5029018;28;20514;-70
2021/12/04 06:51:46;;;;;;;3.65;1.52;;;;;;;;;;5024892;28;20049;-69
2021/12/04 06:54:17;;;;;;;1.63;1.40;;;;;;;;;;5027819;28;20044;-69
2021/12/04 06:56:43;;;;;;;2.17;1.17;;;;;;;;;;5028328;28;20045;-68
2021/12/04 06:59:12;;;;;;;3.10;1.58;;;;;;;;;;5024947;28;20141;-68
2021/12/04 07:01:39;;;;;;;1.63;1.52;;;;;;;;;;5037883;28;20052;-71
2021/12/04 07:04:05;;;;;;;2.30;1.73;;;;;;;;;;5024475;28;20284;-70
2021/12/04 07:06:31;;;;;;;3.85;1.45;;;;;;;;;;5056190;28;20461;-70
2021/12/04 07:08:58;;;;;;;1.95;1.38;;;;;;;;;;5024042;28;20065;-71
2021/12/04 07:11:24;;;;;;;1.98;1.73;;;;;;;;;;5025105;28;20377;-70
2021/12/04 07:13:49;;;;;;;3.35;2.22;;;;;;;;;;5024895;28;20096;-69
2021/12/04 07:16:17;;;;;;;1.55;1.45;;;;;;;;;;5026151;28;20033;-73
2021/12/04 07:18:43;;;;;;;3.00;2.08;;;;;;;;;;5025226;28;20043;-69
2021/12/04 07:21:09;;;;;;;2.50;1.77;;;;;;;;;;5022456;28;20037;-71
2021/12/04 07:23:34;;;;;;;2.17;1.90;;;;;;;;;;5021266;28;20116;-68
2021/12/04 07:26:00;;;;;;;2.95;1.50;;;;;;;;;;5021332;28;20139;-70
2021/12/04 07:28:26;;;;;;;1.70;1.40;;;;;;;;;;5023686;28;20052;-70
2021/12/04 07:30:52;;;;;;;2.05;1.45;;;;;;;;;;5023647;28;20345;-69
2021/12/04 07:33:17;;;;;;;3.65;1.55;;;;;;;;;;5022882;28;20576;-69
2021/12/04 07:35:43;;;;;;;1.52;1.42;;;;;;;;;;5028186;28;20049;-72
2021/12/04 07:38:10;;;;;;;2.70;1.67;;;;;;;;;;5022779;28;20123;-71
2021/12/04 07:40:37;;;;;;;2.03;1.83;;;;;;;;;;5022756;28;20103;-70
2021/12/04 07:43:03;;;;;;;1.98;1.83;;;;;;;;;;5021787;28;20037;-71
2021/12/04 07:45:28;;;;;;;4.55;1.60;;;;;;;;;;5021895;28;20122;-71
2021/12/04 07:47:54;;;;;;;2.78;1.70;;;;;;;;;;5022028;28;20053;-71
2021/12/04 07:50:19;;;;;;;1.83;1.65;;;;;;;;;;5022459;28;20048;-70
2021/12/04 07:52:45;;;;;;;4.85;1.88;;;;;;;;;;5017946;28;20037;-72
2021/12/04 07:55:10;;;;;;;3.53;1.58;;;;;;;;;;5020029;28;20947;-70
2021/12/04 07:57:36;;;;;;;4.10;1.92;;;;;;;;;;5020480;28;20048;-72
2021/12/04 08:00:08;;;;;;;4.57;2.00;;;;;;;;;;5021196;28;20036;-69
2021/12/04 08:02:34;;;;;;;1.90;1.80;;;;;;;;;;5020859;28;20485;-69
2021/12/04 08:04:59;;;;;;;1.55;1.42;;;;;;;;;;5021492;28;20117;-70
2021/12/04 08:07:25;;;;;;;2.85;2.10;;;;;;;;;;5020119;28;20044;-69
2021/12/04 08:09:50;;;;;;;3.92;2.08;;;;;;;;;;5020599;28;20501;-70
2021/12/04 08:12:16;;;;;;;2.70;1.70;;;;;;;;;;5020496;28;20049;-72
2021/12/04 08:14:41;;;;;;;1.80;1.70;;;;;;;;;;5020313;28;20045;-71
2021/12/04 08:17:07;;;;;;;2.72;1.58;;;;;;;;;;5021655;28;20040;-71
2021/12/04 08:19:32;;;;;;;3.58;1.67;;;;;;;;;;5020596;28;20183;-71
2021/12/04 08:21:59;;;;;;;10.73;2.22;;;;;;;;;;5021708;28;20049;-73
2021/12/04 08:24:24;;;;;;;1.40;1.30;;;;;;;;;;5021431;28;20156;-70
2021/12/04 08:26:50;;;;;;;2.15;1.90;;;;;;;;;;5021392;28;20127;-71
2021/12/04 08:29:15;;;;;;;2.42;1.70;;;;;;;;;;5020857;28;20075;-72
2021/12/04 08:31:42;;;;;;;3.90;2.10;;;;;;;;;;5021376;28;20116;-71
2021/12/04 08:34:08;;;;;;;3.97;1.88;;;;;;;;;;5021649;28;20472;-72
2021/12/04 08:36:34;;;;;;;3.78;2.35;;;;;;;;;;5021859;28;20099;-71
2021/12/04 08:39:01;;;;;;;1.75;1.45;;;;;;;;;;5021785;28;20484;-72
2021/12/04 08:41:26;;;;;;;2.53;1.95;;;;;;;;;;5020961;28;20040;-70
2021/12/04 08:43:54;;;;;;;3.88;1.90;;;;;;;;;;5021672;28;20038;-73
2021/12/04 08:46:20;;;;;;;6.97;2.30;;;;;;;;;;5021097;28;20376;-74
2021/12/04 08:48:48;;;;;;;4.70;2.20;;;;;;;;;;5021046;28;20033;-73
2021/12/04 08:51:14;;;;;;;5.95;3.00;;;;;;;;;;5020593;28;20037;-74
2021/12/04 08:53:41;;;;;;;2.45;2.13;;;;;;;;;;5021106;28;20037;-74
2021/12/04 08:56:07;;;;;;;3.97;2.35;;;;;;;;;;5021391;28;20107;-73
2021/12/04 08:58:35;;;;;;;3.58;2.50;;;;;;;;;;5021088;28;20042;-73
2021/12/04 09:01:04;;;;;;;4.07;2.53;;;;;;;;;;5021224;28;20665;-74
2021/12/04 09:03:36;;;;;;;4.78;3.33;;;;;;;;;;5020628;28;20021;-73
2021/12/04 09:06:03;;;;;;;4.25;2.92;;;;;;;;;;5020966;28;20037;-73
2021/12/04 09:08:30;;;;;;;3.95;2.83;;;;;;;;;;5052821;28;20045;-75
2021/12/04 09:11:00;;;;;;;4.00;2.58;;;;;;;;;;5020981;28;20046;-73
2021/12/04 09:13:28;;;;;;;7.30;3.35;;;;;;;;;;5020996;28;20058;-75
2021/12/04 09:15:56;;;;;;;5.78;3.47;;;;;;;;;;5021061;28;20392;-75
2021/12/04 09:18:22;;;;;;;4.53;3.30;;;;;;;;;;5020498;28;20033;-72
2021/12/04 09:20:49;;;;;;;3.60;2.92;;;;;;;;;;5019699;28;20393;-73
2021/12/04 09:23:17;;;;;;;6.65;4.00;;;;;;;;;;5019309;28;20037;-74
2021/12/04 09:25:48;;;;;;;4.63;2.58;;;;;;;;;;5018138;28;20569;-74
2021/12/04 09:28:33;;;;;;;3.85;3.00;;;;;;;;;;5018374;28;20072;-74
2021/12/04 10:11:08;;;;;;;5.13;3.00;;;;;;;;;;5019269;28;20087;-70
2021/12/04 10:15:25;;;;;;;6.05;2.63;;;;;;;;;;5023506;28;20029;-69
2021/12/04 10:20:23;;;;;;;2.47;2.25;;;;;;;;;;5021055;28;20049;-69
2021/12/04 10:23:04;;;;;;;3.15;2.58;;;;;;;;;;5022520;28;20033;-69
2021/12/04 10:33:49;;;;;;;5.82;2.92;;;;;;;;;;5022892;28;20045;-70
2021/12/04 10:36:30;;;;;;;5.65;2.90;;;;;;;;;;5023685;28;20061;-69
2021/12/04 10:38:56;;;;;;;5.93;3.40;;;;;;;;;;5054729;28;20117;-69
2021/12/04 10:41:43;;;;;;;6.93;3.90;;;;;;;;;;5022873;28;20523;-69
2021/12/04 10:44:21;;;;;;;6.07;3.88;;;;;;;;;;5023293;28;20108;-74
2021/12/04 10:46:52;;;;;;;7.68;3.55;;;;;;;;;;5023913;28;20103;-74
2021/12/04 10:49:30;;;;;;;5.93;3.05;;;;;;;;;;5023714;28;20029;-73
2021/12/04 10:52:02;;;;;;;6.55;3.63;;;;;;;;;;5039191;28;20133;-74
2021/12/04 10:54:32;;;;;;;7.15;3.60;;;;;;;;;;5023062;28;20025;-73
2021/12/04 10:57:49;;;;;;;4.40;3.15;;;;;;;;;;5023204;28;20037;-73
2021/12/04 11:00:25;;;;;;;5.85;3.55;;;;;;;;;;5023142;28;20041;-73
2021/12/04 11:03:02;;;;;;;3.95;2.85;;;;;;;;;;5023127;28;20120;-73
2021/12/04 11:43:22;;;;;;;5.30;3.42;;;;;;;;;;5023493;28;20033;-73
2021/12/04 11:48:30;;;;;;;6.97;4.57;;;;;;;;;;5022721;28;20029;-73
2021/12/04 11:50:55;;;;;;;6.32;4.57;;;;;;;;;;5023265;28;20034;-74
2021/12/04 11:53:21;;;;;;;10.25;5.53;;;;;;;;;;5024148;28;20491;-73
2021/12/04 11:55:49;;;;;;;8.45;3.88;;;;;;;;;;5023365;28;20496;-74
2021/12/04 11:58:31;;;;;;;4.70;3.17;;;;;;;;;;5022859;28;20036;-73
2021/12/04 12:01:01;;;;;;;6.55;4.53;;;;;;;;;;5022271;28;20455;-73
2021/12/04 12:03:30;;;;;;;6.97;4.90;;;;;;;;;;5023029;28;20037;-74
2021/12/04 12:06:06;;;;;;;10.10;4.50;;;;;;;;;;5021956;28;20056;-74
2021/12/04 12:08:34;;;;;;;6.38;4.63;;;;;;;;;;5055291;28;20025;-74
2021/12/04 12:10:59;;;;;;;5.80;4.38;;;;;;;;;;5021909;28;20044;-75
2021/12/04 12:13:29;;;;;;;4.82;3.55;;;;;;;;;;5022252;28;20037;-74
2021/12/04 12:16:02;;;;;;;5.95;4.28;;;;;;;;;;5020707;28;20037;-72
2021/12/04 12:18:41;;;;;;;4.15;3.22;;;;;;;;;;5022639;28;20037;-75
2021/12/04 12:21:09;;;;;;;5.38;4.22;;;;;;;;;;5021859;28;20029;-74
2021/12/04 12:23:39;;;;;;;6.70;5.10;;;;;;;;;;5021714;28;20083;-74
2021/12/04 12:26:26;;;;;;;8.35;5.47;;;;;;;;;;5022119;28;20033;-75
2021/12/04 12:34:11;;;;;;;6.75;4.97;;;;;;;;;;5023017;28;20038;-74
2021/12/04 12:36:37;;;;;;;8.13;5.18;;;;;;;;;;5022468;28;20531;-76
2021/12/04 12:39:05;;;;;;;8.10;4.95;;;;;;;;;;5021392;28;20167;-74
2021/12/04 12:41:41;;;;;;;7.65;4.60;;;;;;;;;;5022363;28;20913;-73
2021/12/04 12:44:33;;;;;;;10.98;4.82;;;;;;;;;;5021905;28;20037;-74
2021/12/04 12:47:15;;;;;;;6.72;5.13;;;;;;;;;;5037004;28;20053;-74
2021/12/04 12:49:43;;;;;;;7.10;5.13;;;;;;;;;;5021646;28;20103;-75
2021/12/04 12:52:25;;;;;;;4.50;4.05;;;;;;;;;;5021633;28;20041;-74
2021/12/04 12:54:53;;;;;;;5.88;4.65;;;;;;;;;;5021044;28;20044;-75
2021/12/04 12:57:25;;;;;;;5.43;4.22;;;;;;;;;;5021320;28;20099;-75
2021/12/04 13:14:24;;;;;;;8.55;4.90;;;;;;;;;;5021341;28;20103;-76
2021/12/04 13:17:00;;;;;;;9.35;4.60;;;;;;;;;;5020815;28;20041;-76
2021/12/04 13:19:26;;;;;;;11.98;5.38;;;;;;;;;;5020626;28;20148;-75
2021/12/04 13:22:02;;;;;;;5.80;4.38;;;;;;;;;;5020194;28;20113;-74
2021/12/04 13:24:31;;;;;;;5.85;3.60;;;;;;;;;;5020767;28;20029;-75
2021/12/04 13:26:58;;;;;;;7.00;4.50;;;;;;;;;;5020828;28;20141;-75
2021/12/04 13:29:26;;;;;;;5.90;3.47;;;;;;;;;;5021406;28;20056;-74
2021/12/04 13:31:54;;;;;;;19.48;5.05;;;;;;;;;;5021172;28;20144;-75
2021/12/04 13:34:29;;;;;;;4.57;3.22;;;;;;;;;;5021574;28;20068;-75
2021/12/04 13:36:56;;;;;;;6.55;4.50;;;;;;;;;;5020794;28;20041;-74
2021/12/04 13:39:22;;;;;;;6.57;4.88;;;;;;;;;;5020147;28;20061;-73
2021/12/04 13:41:49;;;;;;;8.00;4.55;;;;;;;;;;5022249;28;20052;-74
2021/12/04 13:44:18;;;;;;;6.88;4.80;;;;;;;;;;5025565;28;20041;-74
2021/12/04 13:46:51;;;;;;;5.95;4.65;;;;;;;;;;5024841;28;20041;-75
2021/12/04 13:49:30;;;;;;;5.82;4.43;;;;;;;;;;5024779;28;20201;-75
2021/12/04 13:52:01;;;;;;;5.20;4.32;;;;;;;;;;5025033;28;20044;-75
2021/12/04 13:54:29;;;;;;;6.97;4.60;;;;;;;;;;5025586;28;20040;-75
2021/12/04 13:56:55;;;;;;;8.77;4.75;;;;;;;;;;5025477;28;20094;-75
2021/12/04 13:59:23;;;;;;;7.13;4.85;;;;;;;;;;5024116;28;20025;-74
2021/12/04 14:01:48;;;;;;;10.98;4.50;;;;;;;;;;5024354;28;20021;-75
2021/12/04 14:04:17;;;;;;;6.80;4.63;;;;;;;;;;5024425;28;20497;-75
2021/12/04 14:06:50;;;;;;;9.10;4.30;;;;;;;;;;5024188;28;20136;-75
2021/12/04 14:09:16;;;;;;;6.40;4.00;;;;;;;;;;5024333;28;20029;-74
2021/12/04 14:11:42;;;;;;;6.30;4.63;;;;;;;;;;5023812;28;20048;-74
2021/12/04 14:14:21;;;;;;;5.95;4.30;;;;;;;;;;5024018;28;20033;-74
2021/12/04 14:16:51;;;;;;;4.97;3.88;;;;;;;;;;5024775;28;20103;-73
2021/12/04 14:19:25;;;;;;;5.47;4.38;;;;;;;;;;5024382;28;20040;-74
2021/12/04 14:21:54;;;;;;;7.72;5.07;;;;;;;;;;5023570;28;20045;-74
2021/12/04 14:24:29;;;;;;;7.30;4.57;;;;;;;;;;5024442;28;20033;-74
2021/12/04 14:26:57;;;;;;;7.70;5.03;;;;;;;;;;5024374;28;20037;-74
2021/12/04 14:29:25;;;;;;;9.75;4.95;;;;;;;;;;5023672;28;20054;-73
2021/12/04 14:31:52;;;;;;;8.90;5.88;;;;;;;;;;5023743;28;20037;-73
2021/12/04 14:34:26;;;;;;;7.28;5.78;;;;;;;;;;5023388;28;20475;-73
2021/12/04 14:37:13;;;;;;;10.65;5.50;;;;;;;;;;5023826;28;20037;-73
2021/12/04 14:39:40;;;;;;;8.32;5.80;;;;;;;;;;5023496;28;20041;-72
2021/12/04 14:42:13;;;;;;;8.32;6.03;;;;;;;;;;5024360;28;20040;-74
2021/12/04 14:44:40;;;;;;;12.38;5.93;;;;;;;;;;5023266;28;20044;-73
2021/12/04 14:47:10;;;;;;;12.93;7.95;;;;;;;;;;5023819;28;20037;-74
2021/12/04 14:49:37;;;;;;;9.65;7.22;;;;;;;;;;5023452;28;20474;-75
2021/12/04 14:52:03;;;;;;;9.43;6.78;;;;;;;;;;5023484;28;20488;-73
2021/12/04 14:54:35;;;;;;;10.05;6.60;;;;;;;;;;5022656;28;20063;-74
2021/12/04 14:57:13;;;;;;;12.27;6.50;;;;;;;;;;5023781;28;20043;-73
2021/12/04 14:59:39;;;;;;;12.68;6.28;;;;;;;;;;5023896;28;20563;-73
2021/12/04 15:02:20;;;;;;;9.48;6.53;;;;;;;;;;5023888;28;20051;-75
2021/12/04 15:04:45;;;;;;;10.77;6.50;;;;;;;;;;5055422;28;20574;-73
2021/12/04 15:07:28;;;;;;;8.90;5.88;;;;;;;;;;5022659;28;20044;-74
2021/12/04 15:09:54;;;;;;;8.20;5.75;;;;;;;;;;5023118;28;20087;-74
2021/12/04 15:12:25;;;;;;;9.38;5.38;;;;;;;;;;5022742;28;20136;-73
2021/12/04 15:15:02;;;;;;;11.95;5.80;;;;;;;;;;5022966;28;20099;-74
2021/12/04 15:17:28;;;;;;;9.52;5.70;;;;;;;;;;5023154;28;20033;-72
2021/12/04 15:20:00;;;;;;;7.65;5.55;;;;;;;;;;5022841;28;20053;-74
2021/12/04 15:22:37;;;;;;;8.40;5.70;;;;;;;;;;5023271;28;20456;-73
2021/12/04 15:25:10;;;;;;;10.20;5.32;;;;;;;;;;5023018;28;20099;-74
2021/12/04 15:27:36;;;;;;;6.15;5.50;;;;;;;;;;5022919;28;20039;-75
2021/12/04 15:30:09;;;;;;;6.22;4.97;;;;;;;;;;5022336;28;20499;-74
2021/12/04 15:32:38;;;;;;;10.88;5.82;;;;;;;;;;5022906;28;20041;-74
2021/12/04 15:35:45;;;;;;;8.60;5.63;;;;;;;;;;5022759;28;20847;-76
2021/12/04 15:38:16;;;;;;;6.82;5.22;;;;;;;;;;5022635;28;20396;-75
2021/12/04 15:43:33;;;;;;;6.45;4.50;;;;;;;;;;5022572;28;20033;-75
2021/12/04 15:54:26;;;;;;;1.40;1.00;;;;;;;;;;5022719;28;19932;-74
2021/12/04 15:56:54;;;;;;;4.40;0.90;;;;;;;;;;5022498;28;20044;-76
2021/12/04 15:59:22;;;;;;;1.00;0.90;;;;;;;;;;5022085;28;20041;-75
2021/12/04 16:01:52;;;;;;;6.93;1.45;;;;;;;;;;5021442;28;20128;-76
2021/12/04 16:04:24;;;;;;;0.65;0.50;;;;;;;;;;5021846;28;20756;-76
2021/12/04 16:06:50;;;;;;;1.30;0.63;;;;;;;;;;5022208;28;20496;-74
2021/12/04 16:09:26;;;;;;;0.57;0.50;;;;;;;;;;5022724;28;20111;-74
2021/12/04 16:11:59;;;;;;;0.50;0.40;;;;;;;;;;5022810;28;20044;-77
2021/12/04 16:14:44;;;;;;;0.40;0.40;;;;;;;;;;5024990;28;20102;-76
2021/12/04 16:17:11;;;;;;;0.28;0.28;;;;;;;;;;5023929;28;21053;-75
2021/12/04 16:19:38;;;;;;;0.40;0.40;;;;;;;;;;5023791;28;20420;-77
2021/12/04 16:22:08;;;;;;;0.35;0.28;;;;;;;;;;5023586;28;20040;-77
2021/12/04 16:24:36;;;;;;;0.40;0.40;;;;;;;;;;5022801;28;20534;-76
2021/12/04 16:27:13;;;;;;;0.30;0.30;;;;;;;;;;5022374;28;20029;-74
2021/12/04 16:29:48;;;;;;;1.13;0.70;;;;;;;;;;5022376;28;20064;-75
2021/12/04 16:40:03;;;;;;;0.65;0.60;;;;;;;;;;5019117;28;20037;-74
2021/12/04 16:42:29;;;;;;;0.55;0.45;;;;;;;;;;5019378;28;20037;-74
2021/12/04 16:44:54;;;;;;;1.08;0.50;;;;;;;;;;5019461;28;20041;-74
2021/12/04 16:47:21;;;;;;;0.38;0.38;;;;;;;;;;5020844;28;20458;-75
2021/12/04 16:49:47;;;;;;;0.40;0.40;;;;;;;;;;5021228;28;20502;-74
2021/12/04 16:55:18;;;;;;;0.57;0.57;;;;;;;;;;5021311;28;20503;-72
2021/12/04 17:00:18;;;;;;;0.30;0.30;;;;;;;;;;5021347;28;20033;-75
2021/12/04 17:02:44;;;;;;;0.50;0.50;;;;;;;;;;5020947;28;20040;-75
2021/12/04 17:05:09;;;;;;;0.50;0.50;;;;;;;;;;5020987;28;20421;-75
2021/12/04 17:07:35;;;;;;;0.52;0.40;;;;;;;;;;5020763;28;20069;-75
2021/12/04 17:10:01;;;;;;;0.50;0.43;;;;;;;;;;5018341;28;20029;-75
2021/12/04 17:12:26;;;;;;;2.28;0.50;;;;;;;;;;5020402;28;21102;-74
2021/12/04 17:14:53;;;;;;;1.17;0.60;;;;;;;;;;5019339;28;20059;-75
2021/12/04 17:17:25;;;;;;;0.57;0.50;;;;;;;;;;5023025;28;20083;-74
2021/12/04 17:19:52;;;;;;;5.55;0.50;;;;;;;;;;5023582;28;20079;-75
2021/12/04 17:22:18;;;;;;;1.08;0.28;;;;;;;;;;5022624;28;20603;-75
2021/12/04 17:24:44;;;;;;;0.38;0.38;;;;;;;;;;5022509;28;20594;-75
2021/12/04 17:27:11;;;;;;;0.40;0.40;;;;;;;;;;5023985;28;20035;-72
2021/12/04 17:29:39;;;;;;;0.47;0.47;;;;;;;;;;5023083;28;20041;-72
2021/12/04 17:32:06;;;;;;;0.60;0.60;;;;;;;;;;5024817;28;20038;-72
2021/12/04 17:34:31;;;;;;;0.40;0.40;;;;;;;;;;5024740;28;20041;-72
2021/12/04 17:36:57;;;;;;;0.50;0.50;;;;;;;;;;5025001;28;20420;-72
2021/12/04 17:39:22;;;;;;;0.40;0.40;;;;;;;;;;5024043;28;20040;-72
2021/12/04 17:41:48;;;;;;;0.50;0.50;;;;;;;;;;5024711;28;20049;-73
2021/12/04 17:44:19;;;;;;;0.50;0.50;;;;;;;;;;5056781;28;20029;-72
2021/12/04 17:46:46;;;;;;;0.40;0.40;;;;;;;;;;5022087;28;20060;-74
2021/12/04 17:49:14;;;;;;;0.47;0.43;;;;;;;;;;5023850;28;20083;-73
2021/12/04 17:51:39;;;;;;;0.50;0.50;;;;;;;;;;5023476;28;20029;-73
2021/12/04 17:54:09;;;;;;;0.57;0.57;;;;;;;;;;5022910;28;20044;-73
2021/12/04 17:56:35;;;;;;;0.93;0.40;;;;;;;;;;5024079;28;20049;-73
2021/12/04 17:59:01;;;;;;;0.47;0.40;;;;;;;;;;5023323;28;20518;-74
2021/12/04 18:01:32;;;;;;;0.47;0.47;;;;;;;;;;5023256;28;20832;-73
2021/12/04 18:03:58;;;;;;;0.57;0.57;;;;;;;;;;5022016;28;20562;-73
2021/12/04 18:06:26;;;;;;;0.43;0.43;;;;;;;;;;5023250;28;20076;-72
2021/12/04 18:08:53;;;;;;;2.58;0.50;;;;;;;;;;5055072;28;20095;-72
2021/12/04 18:11:25;;;;;;;0.50;0.50;;;;;;;;;;5023527;28;20552;-74